createdAt,value
2022-10-11T00:01:36.518Z,96.00
2022-10-11T00:04:58.798Z,95.90
2022-10-11T00:08:21.434Z,95.90
2022-10-11T00:11:43.606Z,95.90
2022-10-11T00:15:07.822Z,95.90
2022-10-11T00:18:29.960Z,95.80
2022-10-11T00:21:52.241Z,95.80
2022-10-11T00:25:14.427Z,95.70
2022-10-11T00:28:37.627Z,95.70
2022-10-11T00:31:59.849Z,95.60
2022-10-11T00:35:22.007Z,95.50
2022-10-11T00:38:45.292Z,95.50
2022-10-11T00:42:13.555Z,95.40
2022-10-11T00:45:35.654Z,95.30
2022-10-11T00:49:06.986Z,95.30
2022-10-11T00:52:32.881Z,95.30
2022-10-11T00:56:02.983Z,95.10
2022-10-11T00:59:29.815Z,95.10
2022-10-11T01:02:52.060Z,95.10
2022-10-11T01:06:14.294Z,95.10
2022-10-11T01:09:36.424Z,95.10
2022-10-11T01:13:20.179Z,95.10
2022-10-11T01:17:06.486Z,95.00
2022-10-11T01:20:50.514Z,95.00
2022-10-11T01:24:34.697Z,94.90
2022-10-11T01:28:24.474Z,94.80
2022-10-11T01:31:59.021Z,94.70
2022-10-11T01:35:26.623Z,94.80
2022-10-11T01:38:58.216Z,94.70
2022-10-11T01:42:21.624Z,94.60
2022-10-11T01:45:45.371Z,94.60
2022-10-11T01:49:07.921Z,94.50
2022-10-11T01:52:33.324Z,94.40
2022-10-11T01:56:56.884Z,94.30
2022-10-11T02:00:48.474Z,94.30
2022-10-11T02:04:22.554Z,94.30
2022-10-11T02:07:44.690Z,94.20
2022-10-11T02:11:13.260Z,94.20
2022-10-11T02:14:41.242Z,94.20
2022-10-11T02:18:08.346Z,94.10
2022-10-11T02:21:33.211Z,94.00
2022-10-11T02:24:59.487Z,94.00
2022-10-11T02:28:28.238Z,94.00
2022-10-11T02:31:51.880Z,93.90
2022-10-11T02:35:14.625Z,93.80
2022-10-11T02:38:47.389Z,93.70
2022-10-11T02:42:20.298Z,93.70
2022-10-11T02:45:52.435Z,93.60
2022-10-11T02:49:16.194Z,93.60
2022-10-11T02:52:38.337Z,93.50
2022-10-11T02:56:00.469Z,93.50
2022-10-11T02:59:22.686Z,93.40
2022-10-11T03:02:44.849Z,93.30
2022-10-11T03:06:07.377Z,93.30
2022-10-11T03:09:29.782Z,93.30
2022-10-11T03:12:51.989Z,93.20
2022-10-11T03:16:14.921Z,93.10
2022-10-11T03:19:37.268Z,93.10
2022-10-11T03:22:59.418Z,93.10
2022-10-11T03:26:21.607Z,93.00
2022-10-11T03:29:43.723Z,93.00
2022-10-11T03:33:06.210Z,92.90
2022-10-11T03:36:28.353Z,92.90
2022-10-11T03:39:50.549Z,92.80
2022-10-11T03:43:13.072Z,92.80
2022-10-11T03:46:35.229Z,92.80
2022-10-11T03:49:57.472Z,92.70
2022-10-11T03:53:19.684Z,92.60
2022-10-11T03:56:41.908Z,92.60
2022-10-11T04:00:06.469Z,92.50
2022-10-11T04:03:28.673Z,92.90
2022-10-11T04:06:50.781Z,92.50
2022-10-11T04:10:12.914Z,92.50
2022-10-11T04:13:35.049Z,92.40
2022-10-11T04:17:00.227Z,92.40
2022-10-11T04:20:22.798Z,92.40
2022-10-11T04:23:44.946Z,92.30
2022-10-11T04:27:07.068Z,92.30
2022-10-11T04:30:29.312Z,92.40
2022-10-11T04:33:51.825Z,92.20
2022-10-11T04:37:14.106Z,92.10
2022-10-11T04:40:36.241Z,92.10
2022-10-11T04:43:58.362Z,92.00
2022-10-11T04:47:20.805Z,92.00
2022-10-11T04:50:44.821Z,92.00
2022-10-11T04:54:11.613Z,91.90
2022-10-11T04:57:33.768Z,91.90
2022-10-11T05:00:56.204Z,91.90
2022-10-11T05:04:18.352Z,91.90
2022-10-11T05:07:40.531Z,92.20
2022-10-11T05:11:05.592Z,92.30
2022-10-11T05:14:27.765Z,91.80
2022-10-11T05:17:49.856Z,91.80
2022-10-11T05:21:21.294Z,91.80
2022-10-11T05:24:43.524Z,92.10
2022-10-11T05:28:06.344Z,92.20
2022-10-11T05:31:28.469Z,92.10
2022-10-11T05:34:50.648Z,92.00
2022-10-11T05:38:13.043Z,92.20
2022-10-11T05:41:35.274Z,91.80
2022-10-11T05:44:57.411Z,92.20
2022-10-11T05:48:19.936Z,92.40
2022-10-11T05:51:42.297Z,92.30
2022-10-11T05:55:04.944Z,92.80
2022-10-11T05:58:27.153Z,92.40
2022-10-11T06:01:49.491Z,92.40
2022-10-11T06:05:11.706Z,92.40
2022-10-11T06:08:33.910Z,92.50
2022-10-11T06:11:56.213Z,92.50
2022-10-11T06:15:18.431Z,92.30
2022-10-11T06:18:40.727Z,92.50
2022-10-11T06:22:02.996Z,91.90
2022-10-11T06:25:25.220Z,91.90
2022-10-11T06:28:47.560Z,91.90
2022-10-11T06:32:09.757Z,92.20
2022-10-11T06:35:31.898Z,91.60
2022-10-11T06:38:55.193Z,91.30
2022-10-11T06:42:17.425Z,91.40
2022-10-11T06:45:39.550Z,91.40
2022-10-11T06:49:01.791Z,91.50
2022-10-11T06:52:23.887Z,91.40
2022-10-11T06:55:46.020Z,91.30
2022-10-11T06:59:09.156Z,91.30
2022-10-11T07:02:31.318Z,91.30
2022-10-11T07:05:53.424Z,91.20
2022-10-11T07:09:15.536Z,91.10
2022-10-11T07:12:37.692Z,91.10
2022-10-11T07:16:09.511Z,91.00
2022-10-11T07:19:31.796Z,90.90
2022-10-11T07:22:53.912Z,90.90
2022-10-11T07:26:16.092Z,90.80
2022-10-11T07:29:38.287Z,90.80
2022-10-11T07:33:00.357Z,90.70
2022-10-11T07:36:23.282Z,90.60
2022-10-11T07:39:45.524Z,90.30
2022-10-11T07:43:07.707Z,90.20
2022-10-11T07:46:30.152Z,90.00
2022-10-11T07:49:52.287Z,89.60
2022-10-11T07:53:14.527Z,89.10
2022-10-11T07:56:37.510Z,89.00
2022-10-11T07:59:59.637Z,88.70
2022-10-11T08:03:21.952Z,88.70
2022-10-11T08:06:44.070Z,88.70
2022-10-11T08:10:07.464Z,88.20
2022-10-11T08:13:29.633Z,87.60
2022-10-11T08:16:51.858Z,87.20
2022-10-11T08:20:14.325Z,86.70
2022-10-11T08:23:36.767Z,86.30
2022-10-11T08:26:58.901Z,86.00
2022-10-11T08:30:21.150Z,85.70
2022-10-11T08:33:44.232Z,85.50
2022-10-11T08:37:06.402Z,85.60
2022-10-11T08:40:31.603Z,85.60
2022-10-11T08:44:06.037Z,85.90
2022-10-11T08:47:37.433Z,86.00
2022-10-11T08:50:59.911Z,86.00
2022-10-11T08:54:37.366Z,86.00
2022-10-11T08:57:59.657Z,86.00
2022-10-11T09:01:26.051Z,86.20
2022-10-11T09:04:51.370Z,86.10
2022-10-11T09:08:25.317Z,86.20
2022-10-11T09:12:14.743Z,86.40
2022-10-11T09:16:01.110Z,86.80
2022-10-11T09:19:38.977Z,87.00
2022-10-11T09:23:20.394Z,87.20
2022-10-11T09:26:57.402Z,87.20
2022-10-11T09:30:20.698Z,87.10
2022-10-11T09:33:47.056Z,87.40
2022-10-11T09:37:32.734Z,87.40
2022-10-11T09:40:54.769Z,87.40
2022-10-11T09:44:32.821Z,87.60
2022-10-11T09:47:58.349Z,87.40
2022-10-11T09:51:24.085Z,87.30
2022-10-11T09:54:55.949Z,87.40
2022-10-11T09:58:28.813Z,87.40
2022-10-11T10:02:26.208Z,87.40
2022-10-11T10:06:15.739Z,87.50
2022-10-11T10:09:37.970Z,87.40
2022-10-11T10:13:05.427Z,87.50
2022-10-11T10:16:28.817Z,87.60
2022-10-11T10:19:54.629Z,87.60
2022-10-11T10:23:25.062Z,87.60
2022-10-11T10:27:05.638Z,87.50
2022-10-11T10:30:31.902Z,87.50
2022-10-11T10:33:57.678Z,87.60
2022-10-11T10:37:29.412Z,87.40
2022-10-11T10:41:01.732Z,87.40
2022-10-11T10:44:24.677Z,87.50
2022-10-11T10:48:25.791Z,87.50
2022-10-11T10:52:13.276Z,87.40
2022-10-11T10:55:45.917Z,87.60
2022-10-11T10:59:47.862Z,87.40
2022-10-11T11:03:35.521Z,87.50
2022-10-11T11:07:35.416Z,87.60
2022-10-11T11:11:34.647Z,87.60
2022-10-11T11:15:07.323Z,87.50
2022-10-11T11:18:39.118Z,87.60
2022-10-11T11:22:35.782Z,87.70
2022-10-11T11:26:01.053Z,87.60
2022-10-11T11:29:51.849Z,87.80
2022-10-11T11:33:25.319Z,87.80
2022-10-11T11:36:57.913Z,87.80
2022-10-11T11:40:46.515Z,87.80
2022-10-11T11:44:21.775Z,88.00
2022-10-11T11:48:02.620Z,87.90
2022-10-11T11:51:30.607Z,87.90
2022-10-11T11:55:04.273Z,88.00
2022-10-11T11:58:41.498Z,87.90
2022-10-11T12:02:18.657Z,88.20
2022-10-11T12:06:12.520Z,88.20
2022-10-11T12:09:36.742Z,88.40
2022-10-11T12:13:44.541Z,88.20
2022-10-11T12:17:16.018Z,88.30
2022-10-11T12:20:41.226Z,88.40
2022-10-11T12:24:15.006Z,88.40
2022-10-11T12:27:47.134Z,88.60
2022-10-11T12:31:28.171Z,88.50
2022-10-11T12:34:50.281Z,88.40
2022-10-11T12:38:33.881Z,88.50
2022-10-11T12:42:29.253Z,88.40
2022-10-11T12:45:51.413Z,88.40
2022-10-11T12:49:37.866Z,88.40
2022-10-11T12:53:18.518Z,88.50
2022-10-11T12:57:09.636Z,88.50
2022-10-11T13:00:51.711Z,88.70
2022-10-11T13:04:18.762Z,88.70
2022-10-11T13:07:42.284Z,88.70
2022-10-11T13:11:08.713Z,88.70
2022-10-11T13:14:37.634Z,88.90
2022-10-11T13:18:01.033Z,88.80
2022-10-11T13:21:39.310Z,88.80
2022-10-11T13:25:05.318Z,88.80
2022-10-11T13:28:32.843Z,88.80
2022-10-11T13:31:59.439Z,88.80
2022-10-11T13:35:31.293Z,88.90
2022-10-11T13:39:01.481Z,89.10
2022-10-11T13:42:29.612Z,89.00
2022-10-11T13:45:57.042Z,89.10
2022-10-11T13:49:40.295Z,89.10
2022-10-11T13:53:04.011Z,89.10
2022-10-11T13:56:27.850Z,89.10
2022-10-11T13:59:50.135Z,89.30
2022-10-11T14:03:18.022Z,89.40
2022-10-11T14:06:51.253Z,89.50
2022-10-11T14:10:23.190Z,89.60
2022-10-11T14:13:47.634Z,89.60
2022-10-11T14:17:18.089Z,89.60
2022-10-11T14:20:41.698Z,89.60
2022-10-11T14:24:10.432Z,89.70
2022-10-11T14:27:32.712Z,89.70
2022-10-11T14:30:54.843Z,89.70
2022-10-11T14:34:25.657Z,89.70
2022-10-11T14:37:47.809Z,89.80
2022-10-11T14:41:09.986Z,89.70
2022-10-11T14:44:32.162Z,89.80
2022-10-11T14:47:55.792Z,89.80
2022-10-11T14:51:30.294Z,90.00
2022-10-11T14:54:53.152Z,89.90
2022-10-11T14:58:16.825Z,90.00
2022-10-11T15:01:39.029Z,90.00
2022-10-11T15:05:01.473Z,90.00
2022-10-11T15:08:23.669Z,90.00
2022-10-11T15:11:45.801Z,90.00
2022-10-11T15:15:08.335Z,90.00
2022-10-11T15:18:30.523Z,90.00
2022-10-11T15:21:52.845Z,90.10
2022-10-11T15:25:15.111Z,90.20
2022-10-11T15:28:37.297Z,90.10
2022-10-11T15:31:59.429Z,90.20
2022-10-11T15:35:23.115Z,90.20
2022-10-11T15:38:45.717Z,90.20
2022-10-11T15:42:08.052Z,90.20
2022-10-11T15:45:30.358Z,90.20
2022-10-11T15:48:52.626Z,90.20
2022-10-11T15:52:14.723Z,90.20
2022-10-11T15:55:40.060Z,90.20
2022-10-11T15:59:02.273Z,90.20
2022-10-11T16:02:25.577Z,90.10
2022-10-11T16:05:48.433Z,90.30
2022-10-11T16:09:10.583Z,90.40
2022-10-11T16:12:32.734Z,90.70
2022-10-11T16:15:55.182Z,90.40
2022-10-11T16:19:17.277Z,90.50
2022-10-11T16:22:39.401Z,90.50
2022-10-11T16:26:05.712Z,90.60
2022-10-11T16:29:28.094Z,90.60
2022-10-11T16:32:50.366Z,90.60
2022-10-11T16:36:32.822Z,90.60
2022-10-11T16:39:54.948Z,90.60
2022-10-11T16:43:17.129Z,90.50
2022-10-11T16:46:39.373Z,90.50
2022-10-11T16:50:02.042Z,91.10
2022-10-11T16:53:24.160Z,90.60
2022-10-11T16:56:46.825Z,90.60
2022-10-11T17:00:10.311Z,90.60
2022-10-11T17:03:32.431Z,90.70
2022-10-11T17:06:55.085Z,90.80
2022-10-11T17:10:17.286Z,90.90
2022-10-11T17:13:39.585Z,90.90
2022-10-11T17:17:03.436Z,90.90
2022-10-11T17:20:25.553Z,90.90
2022-10-11T17:23:49.119Z,91.10
2022-10-11T17:27:11.297Z,92.00
2022-10-11T17:30:33.647Z,92.10
2022-10-11T17:33:59.281Z,93.70
2022-10-11T17:37:21.397Z,94.10
2022-10-11T17:40:43.542Z,93.40
2022-10-11T17:44:05.890Z,93.00
2022-10-11T17:47:28.437Z,94.30
2022-10-11T17:50:50.957Z,93.60
2022-10-11T17:54:13.417Z,93.50
2022-10-11T17:57:35.759Z,92.90
2022-10-11T18:01:02.035Z,92.90
2022-10-11T18:04:26.886Z,94.30
2022-10-11T18:07:52.753Z,95.00
2022-10-11T18:11:17.244Z,94.80
2022-10-11T18:14:39.350Z,93.50
2022-10-11T18:18:01.593Z,93.90
2022-10-11T18:21:26.777Z,93.10
2022-10-11T18:24:50.902Z,93.00
2022-10-11T18:28:13.108Z,93.80
2022-10-11T18:31:35.827Z,93.50
2022-10-11T18:34:59.701Z,92.10
2022-10-11T18:38:21.877Z,92.90
2022-10-11T18:41:44.581Z,93.20
2022-10-11T18:45:07.550Z,93.40
2022-10-11T18:48:32.473Z,93.50
2022-10-11T18:51:54.715Z,94.30
2022-10-11T18:55:17.232Z,94.20
2022-10-11T18:58:40.486Z,94.70
2022-10-11T19:02:04.114Z,93.90
2022-10-11T19:05:27.629Z,94.60
2022-10-11T19:08:55.343Z,94.00
2022-10-11T19:12:17.902Z,93.90
2022-10-11T19:15:40.360Z,93.80
2022-10-11T19:19:02.580Z,93.70
2022-10-11T19:22:24.842Z,93.80
2022-10-11T19:25:46.973Z,93.60
2022-10-11T19:29:18.931Z,93.40
2022-10-11T19:32:41.038Z,93.60
2022-10-11T19:36:06.620Z,92.90
2022-10-11T19:39:29.568Z,93.20
2022-10-11T19:42:51.747Z,93.10
2022-10-11T19:46:27.368Z,92.90
2022-10-11T19:49:58.066Z,92.90
2022-10-11T19:53:20.173Z,92.80
2022-10-11T19:56:42.783Z,92.80
2022-10-11T20:00:05.258Z,93.00
2022-10-11T20:03:27.421Z,92.80
2022-10-11T20:06:49.555Z,92.70
2022-10-11T20:10:11.672Z,92.80
2022-10-11T20:13:35.241Z,92.70
2022-10-11T20:16:57.403Z,92.60
2022-10-11T20:20:19.755Z,92.60
2022-10-11T20:23:44.377Z,92.50
2022-10-11T20:27:06.779Z,92.40
2022-10-11T20:30:29.001Z,92.30
2022-10-11T20:33:51.645Z,92.20
2022-10-11T20:37:13.838Z,92.40
2022-10-11T20:40:40.394Z,92.30
2022-10-11T20:44:03.607Z,92.20
2022-10-11T20:47:25.877Z,92.10
2022-10-11T20:50:48.013Z,91.90
2022-10-11T20:54:11.095Z,92.00
2022-10-11T20:57:33.430Z,91.90
2022-10-11T21:00:55.736Z,92.20
2022-10-11T21:04:19.926Z,92.30
2022-10-11T21:07:42.074Z,92.20
2022-10-11T21:11:05.485Z,92.30
2022-10-11T21:14:27.631Z,92.20
2022-10-11T21:17:51.000Z,92.10
2022-10-11T21:21:14.592Z,92.10
2022-10-11T21:24:36.694Z,92.10
2022-10-11T21:27:58.842Z,92.10
2022-10-11T21:31:22.555Z,91.90
2022-10-11T21:34:45.366Z,92.00
2022-10-11T21:38:10.619Z,91.90
2022-10-11T21:41:33.948Z,92.00
2022-10-11T21:44:56.162Z,92.00
2022-10-11T21:48:18.302Z,91.90
2022-10-11T21:51:40.406Z,91.70
2022-10-11T21:55:02.558Z,91.80
2022-10-11T21:58:24.816Z,92.10
2022-10-11T22:01:47.056Z,91.70
2022-10-11T22:05:09.284Z,91.60
2022-10-11T22:08:31.689Z,91.60
2022-10-11T22:11:53.856Z,91.50
2022-10-11T22:15:16.012Z,91.40
2022-10-11T22:18:38.666Z,91.40
2022-10-11T22:22:00.852Z,91.50
2022-10-11T22:25:22.955Z,91.40
2022-10-11T22:28:48.527Z,91.40
2022-10-11T22:32:10.619Z,91.40
2022-10-11T22:35:37.354Z,91.40
2022-10-11T22:38:59.973Z,91.30
2022-10-11T22:42:26.751Z,91.40
2022-10-11T22:45:49.788Z,91.30
2022-10-11T22:49:11.900Z,91.30
2022-10-11T22:52:34.050Z,91.30
2022-10-11T22:55:56.252Z,91.30
2022-10-11T22:59:18.318Z,91.20
2022-10-11T23:02:41.059Z,91.20
2022-10-11T23:06:03.636Z,91.30
2022-10-11T23:09:28.785Z,91.20
2022-10-11T23:12:50.917Z,91.10
2022-10-11T23:16:13.311Z,91.10
2022-10-11T23:19:36.978Z,91.10
2022-10-11T23:22:59.099Z,91.10
2022-10-11T23:26:21.656Z,91.00
2022-10-11T23:29:43.745Z,91.10
2022-10-11T23:33:05.861Z,91.00
2022-10-11T23:36:28.027Z,91.10
2022-10-11T23:39:50.124Z,91.10
2022-10-11T23:43:12.265Z,91.20
2022-10-11T23:46:34.366Z,91.10
2022-10-11T23:49:56.480Z,91.20
2022-10-11T23:53:18.599Z,90.90
2022-10-11T23:56:40.697Z,90.80
